Terminal Aerodrome Forecast
Issued by NWS Indianapolis, IN

Home | Current Version | Previous Version | Text Only | Print | Product List | Glossary On
Versions: 1 2 3 4 5 6 7 8 9 10 11 12 13 14 15 16 17 18 19 20 21 22 23 24 25 26 27 28 29 30
000
FTUS43 KIND 230800 AAA
TAFIND
TAF AMD
KIND 230827Z 2308/2412 08003KT P6SM SKC
     FM231000 13002KT 6SM BR SKC
     FM231300 18005KT P6SM SCT250
     FM231900 22007KT P6SM BKN200
     FM240700 19005KT P6SM OVC080=

USA.gov is the U.S. government's official web portal to all federal, state and local government web resources and services.